sensor_id;sensor_type;location;lat;lon;timestamp;P1;durP1;ratioP1;P2;durP2;ratioP2
32533;SDS011;18973;48.580;8.912;2023-02-04T00:01:34;5.47;;;3.05;;
32533;SDS011;18973;48.580;8.912;2023-02-04T00:04:00;3.10;;;2.80;;
32533;SDS011;18973;48.580;8.912;2023-02-04T00:06:25;4.10;;;2.75;;
32533;SDS011;18973;48.580;8.912;2023-02-04T00:08:51;4.15;;;2.85;;
32533;SDS011;18973;48.580;8.912;2023-02-04T00:11:17;5.05;;;3.03;;
32533;SDS011;18973;48.580;8.912;2023-02-04T00:13:43;4.05;;;2.88;;
32533;SDS011;18973;48.580;8.912;2023-02-04T00:16:08;3.50;;;2.90;;
32533;SDS011;18973;48.580;8.912;2023-02-04T00:18:34;4.22;;;3.58;;
32533;SDS011;18973;48.580;8.912;2023-02-04T00:21:00;5.93;;;4.63;;
32533;SDS011;18973;48.580;8.912;2023-02-04T00:23:26;6.35;;;4.45;;
32533;SDS011;18973;48.580;8.912;2023-02-04T00:25:51;5.63;;;4.28;;
32533;SDS011;18973;48.580;8.912;2023-02-04T00:28:17;6.25;;;4.40;;
32533;SDS011;18973;48.580;8.912;2023-02-04T00:30:43;5.05;;;4.40;;
32533;SDS011;18973;48.580;8.912;2023-02-04T00:33:09;7.00;;;4.22;;
32533;SDS011;18973;48.580;8.912;2023-02-04T00:35:35;5.47;;;3.88;;
32533;SDS011;18973;48.580;8.912;2023-02-04T00:38:03;6.65;;;4.38;;
32533;SDS011;18973;48.580;8.912;2023-02-04T00:40:30;8.48;;;4.70;;
32533;SDS011;18973;48.580;8.912;2023-02-04T00:42:56;7.07;;;4.32;;
32533;SDS011;18973;48.580;8.912;2023-02-04T00:45:22;7.45;;;5.22;;
32533;SDS011;18973;48.580;8.912;2023-02-04T00:47:48;5.82;;;4.15;;
32533;SDS011;18973;48.580;8.912;2023-02-04T00:50:13;10.50;;;4.43;;
32533;SDS011;18973;48.580;8.912;2023-02-04T00:52:39;6.90;;;4.60;;
32533;SDS011;18973;48.580;8.912;2023-02-04T00:55:05;7.63;;;4.18;;
32533;SDS011;18973;48.580;8.912;2023-02-04T00:57:32;7.80;;;4.47;;
32533;SDS011;18973;48.580;8.912;2023-02-04T00:59:58;6.28;;;4.07;;
32533;SDS011;18973;48.580;8.912;2023-02-04T01:02:24;7.70;;;4.50;;
32533;SDS011;18973;48.580;8.912;2023-02-04T01:04:49;5.35;;;3.80;;
32533;SDS011;18973;48.580;8.912;2023-02-04T01:07:15;9.93;;;5.05;;
32533;SDS011;18973;48.580;8.912;2023-02-04T01:09:41;11.90;;;4.97;;
32533;SDS011;18973;48.580;8.912;2023-02-04T01:12:06;6.57;;;4.22;;
32533;SDS011;18973;48.580;8.912;2023-02-04T01:14:32;7.25;;;4.65;;
32533;SDS011;18973;48.580;8.912;2023-02-04T01:16:58;5.97;;;4.35;;
32533;SDS011;18973;48.580;8.912;2023-02-04T01:19:24;6.80;;;4.30;;
32533;SDS011;18973;48.580;8.912;2023-02-04T01:21:49;7.28;;;4.25;;
32533;SDS011;18973;48.580;8.912;2023-02-04T01:24:15;5.38;;;4.47;;
32533;SDS011;18973;48.580;8.912;2023-02-04T01:26:40;6.53;;;4.20;;
32533;SDS011;18973;48.580;8.912;2023-02-04T01:29:06;7.10;;;3.95;;
32533;SDS011;18973;48.580;8.912;2023-02-04T01:31:32;4.43;;;3.88;;
32533;SDS011;18973;48.580;8.912;2023-02-04T01:33:58;5.22;;;4.47;;
32533;SDS011;18973;48.580;8.912;2023-02-04T01:36:25;5.88;;;4.13;;
32533;SDS011;18973;48.580;8.912;2023-02-04T01:38:51;4.70;;;4.07;;
32533;SDS011;18973;48.580;8.912;2023-02-04T01:41:17;7.07;;;4.32;;
32533;SDS011;18973;48.580;8.912;2023-02-04T01:43:46;6.68;;;4.10;;
32533;SDS011;18973;48.580;8.912;2023-02-04T01:46:13;4.93;;;3.75;;
32533;SDS011;18973;48.580;8.912;2023-02-04T01:48:41;5.82;;;4.00;;
32533;SDS011;18973;48.580;8.912;2023-02-04T01:51:08;4.43;;;3.70;;
32533;SDS011;18973;48.580;8.912;2023-02-04T01:53:37;6.07;;;3.92;;
32533;SDS011;18973;48.580;8.912;2023-02-04T01:56:20;5.20;;;4.10;;
32533;SDS011;18973;48.580;8.912;2023-02-04T01:58:47;9.90;;;4.25;;
32533;SDS011;18973;48.580;8.912;2023-02-04T02:01:31;5.13;;;3.75;;
32533;SDS011;18973;48.580;8.912;2023-02-04T02:03:57;8.50;;;3.80;;
32533;SDS011;18973;48.580;8.912;2023-02-04T02:06:23;4.45;;;4.05;;
32533;SDS011;18973;48.580;8.912;2023-02-04T02:08:49;5.38;;;4.00;;
32533;SDS011;18973;48.580;8.912;2023-02-04T02:11:15;6.32;;;4.30;;
32533;SDS011;18973;48.580;8.912;2023-02-04T02:13:40;6.20;;;3.55;;
32533;SDS011;18973;48.580;8.912;2023-02-04T02:16:06;7.22;;;3.45;;
32533;SDS011;18973;48.580;8.912;2023-02-04T02:18:32;6.03;;;3.50;;
32533;SDS011;18973;48.580;8.912;2023-02-04T02:20:58;4.35;;;3.92;;
32533;SDS011;18973;48.580;8.912;2023-02-04T02:23:45;5.28;;;3.97;;
32533;SDS011;18973;48.580;8.912;2023-02-04T02:26:13;5.90;;;3.70;;
32533;SDS011;18973;48.580;8.912;2023-02-04T02:28:40;4.43;;;3.55;;
32533;SDS011;18973;48.580;8.912;2023-02-04T02:31:06;4.82;;;4.32;;
32533;SDS011;18973;48.580;8.912;2023-02-04T02:33:32;4.55;;;4.13;;
32533;SDS011;18973;48.580;8.912;2023-02-04T02:35:59;6.55;;;4.65;;
32533;SDS011;18973;48.580;8.912;2023-02-04T02:38:25;6.32;;;4.13;;
32533;SDS011;18973;48.580;8.912;2023-02-04T02:40:50;4.90;;;3.97;;
32533;SDS011;18973;48.580;8.912;2023-02-04T02:43:18;6.25;;;4.03;;
32533;SDS011;18973;48.580;8.912;2023-02-04T02:45:46;4.60;;;4.10;;
32533;SDS011;18973;48.580;8.912;2023-02-04T02:48:13;6.43;;;4.15;;
32533;SDS011;18973;48.580;8.912;2023-02-04T02:50:38;4.93;;;4.28;;
32533;SDS011;18973;48.580;8.912;2023-02-04T02:53:09;6.10;;;4.65;;
32533;SDS011;18973;48.580;8.912;2023-02-04T02:55:37;5.32;;;4.10;;
32533;SDS011;18973;48.580;8.912;2023-02-04T02:58:03;5.20;;;3.58;;
32533;SDS011;18973;48.580;8.912;2023-02-04T03:00:29;3.95;;;3.55;;
32533;SDS011;18973;48.580;8.912;2023-02-04T03:03:14;4.57;;;4.00;;
32533;SDS011;18973;48.580;8.912;2023-02-04T03:05:44;7.28;;;4.75;;
32533;SDS011;18973;48.580;8.912;2023-02-04T03:08:13;7.70;;;5.03;;
32533;SDS011;18973;48.580;8.912;2023-02-04T03:10:40;6.80;;;4.90;;
32533;SDS011;18973;48.580;8.912;2023-02-04T03:13:07;5.35;;;4.68;;
32533;SDS011;18973;48.580;8.912;2023-02-04T03:15:34;7.95;;;4.75;;
32533;SDS011;18973;48.580;8.912;2023-02-04T03:17:59;6.20;;;4.38;;
32533;SDS011;18973;48.580;8.912;2023-02-04T03:20:26;8.43;;;4.82;;
32533;SDS011;18973;48.580;8.912;2023-02-04T03:22:54;4.90;;;4.40;;
32533;SDS011;18973;48.580;8.912;2023-02-04T03:25:21;3.70;;;3.40;;
32533;SDS011;18973;48.580;8.912;2023-02-04T03:27:50;2.60;;;2.40;;
32533;SDS011;18973;48.580;8.912;2023-02-04T03:30:18;2.30;;;2.10;;
32533;SDS011;18973;48.580;8.912;2023-02-04T03:32:45;1.70;;;1.60;;
32533;SDS011;18973;48.580;8.912;2023-02-04T03:35:11;3.03;;;1.50;;
32533;SDS011;18973;48.580;8.912;2023-02-04T03:37:36;3.22;;;1.30;;
32533;SDS011;18973;48.580;8.912;2023-02-04T03:40:03;1.70;;;1.50;;
32533;SDS011;18973;48.580;8.912;2023-02-04T03:42:29;1.80;;;1.33;;
32533;SDS011;18973;48.580;8.912;2023-02-04T03:44:54;1.80;;;1.67;;
32533;SDS011;18973;48.580;8.912;2023-02-04T03:47:20;1.27;;;1.17;;
32533;SDS011;18973;48.580;8.912;2023-02-04T03:49:46;1.45;;;1.35;;
32533;SDS011;18973;48.580;8.912;2023-02-04T03:52:11;2.35;;;2.03;;
32533;SDS011;18973;48.580;8.912;2023-02-04T03:54:37;1.40;;;1.30;;
32533;SDS011;18973;48.580;8.912;2023-02-04T03:57:03;1.40;;;1.40;;
32533;SDS011;18973;48.580;8.912;2023-02-04T03:59:28;2.28;;;1.27;;
32533;SDS011;18973;48.580;8.912;2023-02-04T04:01:54;3.13;;;1.33;;
32533;SDS011;18973;48.580;8.912;2023-02-04T04:04:20;1.70;;;1.40;;
32533;SDS011;18973;48.580;8.912;2023-02-04T04:06:45;1.40;;;1.20;;
32533;SDS011;18973;48.580;8.912;2023-02-04T04:09:11;1.42;;;1.27;;
32533;SDS011;18973;48.580;8.912;2023-02-04T04:11:37;1.95;;;1.23;;
32533;SDS011;18973;48.580;8.912;2023-02-04T04:14:02;2.53;;;1.40;;
32533;SDS011;18973;48.580;8.912;2023-02-04T04:16:28;1.48;;;1.38;;
32533;SDS011;18973;48.580;8.912;2023-02-04T04:18:54;1.50;;;1.40;;
32533;SDS011;18973;48.580;8.912;2023-02-04T04:21:20;1.45;;;1.35;;
32533;SDS011;18973;48.580;8.912;2023-02-04T04:23:46;1.50;;;1.40;;
32533;SDS011;18973;48.580;8.912;2023-02-04T04:26:11;1.70;;;1.60;;
32533;SDS011;18973;48.580;8.912;2023-02-04T04:28:37;2.35;;;1.52;;
32533;SDS011;18973;48.580;8.912;2023-02-04T04:31:03;2.05;;;1.50;;
32533;SDS011;18973;48.580;8.912;2023-02-04T04:33:28;1.50;;;1.40;;
32533;SDS011;18973;48.580;8.912;2023-02-04T04:35:54;1.60;;;1.50;;
32533;SDS011;18973;48.580;8.912;2023-02-04T04:38:20;1.50;;;1.40;;
32533;SDS011;18973;48.580;8.912;2023-02-04T04:40:45;3.22;;;1.90;;
32533;SDS011;18973;48.580;8.912;2023-02-04T04:43:11;1.90;;;1.80;;
32533;SDS011;18973;48.580;8.912;2023-02-04T04:45:37;3.35;;;1.92;;
32533;SDS011;18973;48.580;8.912;2023-02-04T04:48:02;4.97;;;2.70;;
32533;SDS011;18973;48.580;8.912;2023-02-04T04:50:28;5.50;;;2.47;;
32533;SDS011;18973;48.580;8.912;2023-02-04T04:52:54;3.00;;;2.70;;
32533;SDS011;18973;48.580;8.912;2023-02-04T04:55:20;4.55;;;2.80;;
32533;SDS011;18973;48.580;8.912;2023-02-04T04:57:45;6.60;;;2.85;;
32533;SDS011;18973;48.580;8.912;2023-02-04T05:00:14;5.22;;;3.58;;
32533;SDS011;18973;48.580;8.912;2023-02-04T05:02:41;5.75;;;2.88;;
32533;SDS011;18973;48.580;8.912;2023-02-04T05:05:07;4.78;;;2.45;;
32533;SDS011;18973;48.580;8.912;2023-02-04T05:07:34;3.63;;;2.15;;
32533;SDS011;18973;48.580;8.912;2023-02-04T05:09:59;3.08;;;2.80;;
32533;SDS011;18973;48.580;8.912;2023-02-04T05:12:26;5.22;;;2.03;;
32533;SDS011;18973;48.580;8.912;2023-02-04T05:14:51;5.47;;;2.00;;
32533;SDS011;18973;48.580;8.912;2023-02-04T05:17:17;3.42;;;1.92;;
32533;SDS011;18973;48.580;8.912;2023-02-04T05:19:42;3.50;;;1.88;;
32533;SDS011;18973;48.580;8.912;2023-02-04T05:22:08;5.13;;;2.45;;
32533;SDS011;18973;48.580;8.912;2023-02-04T05:24:34;2.67;;;1.80;;
32533;SDS011;18973;48.580;8.912;2023-02-04T05:26:59;2.35;;;1.60;;
32533;SDS011;18973;48.580;8.912;2023-02-04T05:29:25;6.13;;;2.20;;
32533;SDS011;18973;48.580;8.912;2023-02-04T05:31:51;5.38;;;2.50;;
32533;SDS011;18973;48.580;8.912;2023-02-04T05:34:16;6.57;;;2.40;;
32533;SDS011;18973;48.580;8.912;2023-02-04T05:36:42;10.45;;;2.75;;
32533;SDS011;18973;48.580;8.912;2023-02-04T05:39:08;11.80;;;3.83;;
32533;SDS011;18973;48.580;8.912;2023-02-04T05:41:33;8.60;;;2.45;;
32533;SDS011;18973;48.580;8.912;2023-02-04T05:43:59;7.03;;;2.55;;
32533;SDS011;18973;48.580;8.912;2023-02-04T05:46:24;8.18;;;2.55;;
32533;SDS011;18973;48.580;8.912;2023-02-04T05:48:50;9.10;;;2.78;;
32533;SDS011;18973;48.580;8.912;2023-02-04T05:51:16;8.65;;;2.88;;
32533;SDS011;18973;48.580;8.912;2023-02-04T05:53:41;6.38;;;2.83;;
32533;SDS011;18973;48.580;8.912;2023-02-04T05:56:07;4.60;;;2.40;;
32533;SDS011;18973;48.580;8.912;2023-02-04T05:58:33;8.10;;;3.40;;
32533;SDS011;18973;48.580;8.912;2023-02-04T06:00:59;7.15;;;3.22;;
32533;SDS011;18973;48.580;8.912;2023-02-04T06:03:25;9.90;;;2.90;;
32533;SDS011;18973;48.580;8.912;2023-02-04T06:05:52;12.40;;;2.95;;
32533;SDS011;18973;48.580;8.912;2023-02-04T06:08:17;8.77;;;3.00;;
32533;SDS011;18973;48.580;8.912;2023-02-04T06:10:43;15.10;;;3.67;;
32533;SDS011;18973;48.580;8.912;2023-02-04T06:13:09;9.73;;;4.22;;
32533;SDS011;18973;48.580;8.912;2023-02-04T06:15:34;11.65;;;3.72;;
32533;SDS011;18973;48.580;8.912;2023-02-04T06:18:00;8.90;;;2.63;;
32533;SDS011;18973;48.580;8.912;2023-02-04T06:20:26;11.88;;;3.38;;
32533;SDS011;18973;48.580;8.912;2023-02-04T06:22:51;11.38;;;3.85;;
32533;SDS011;18973;48.580;8.912;2023-02-04T06:25:18;8.30;;;3.25;;
32533;SDS011;18973;48.580;8.912;2023-02-04T06:27:45;8.40;;;3.40;;
32533;SDS011;18973;48.580;8.912;2023-02-04T06:30:11;12.55;;;3.50;;
32533;SDS011;18973;48.580;8.912;2023-02-04T06:32:37;14.18;;;3.88;;
32533;SDS011;18973;48.580;8.912;2023-02-04T06:35:03;8.40;;;3.30;;
32533;SDS011;18973;48.580;8.912;2023-02-04T06:37:32;7.22;;;3.25;;
32533;SDS011;18973;48.580;8.912;2023-02-04T06:39:57;15.00;;;5.28;;
32533;SDS011;18973;48.580;8.912;2023-02-04T06:42:23;14.38;;;3.47;;
32533;SDS011;18973;48.580;8.912;2023-02-04T06:44:49;8.70;;;3.97;;
32533;SDS011;18973;48.580;8.912;2023-02-04T06:47:16;14.43;;;6.13;;
32533;SDS011;18973;48.580;8.912;2023-02-04T06:49:41;10.43;;;3.85;;
32533;SDS011;18973;48.580;8.912;2023-02-04T06:52:07;12.85;;;3.72;;
32533;SDS011;18973;48.580;8.912;2023-02-04T06:54:33;15.23;;;4.88;;
32533;SDS011;18973;48.580;8.912;2023-02-04T06:56:59;10.13;;;4.47;;
32533;SDS011;18973;48.580;8.912;2023-02-04T06:59:31;6.82;;;3.60;;
32533;SDS011;18973;48.580;8.912;2023-02-04T07:01:58;5.32;;;3.75;;
32533;SDS011;18973;48.580;8.912;2023-02-04T07:04:23;8.35;;;3.53;;
32533;SDS011;18973;48.580;8.912;2023-02-04T07:06:49;11.13;;;3.40;;
32533;SDS011;18973;48.580;8.912;2023-02-04T07:09:15;18.80;;;4.68;;
32533;SDS011;18973;48.580;8.912;2023-02-04T07:11:40;15.65;;;4.00;;
32533;SDS011;18973;48.580;8.912;2023-02-04T07:14:06;13.55;;;4.20;;
32533;SDS011;18973;48.580;8.912;2023-02-04T07:16:31;11.48;;;4.10;;
32533;SDS011;18973;48.580;8.912;2023-02-04T07:18:57;15.07;;;4.28;;
32533;SDS011;18973;48.580;8.912;2023-02-04T07:21:23;10.32;;;4.22;;
32533;SDS011;18973;48.580;8.912;2023-02-04T07:23:48;21.17;;;6.10;;
32533;SDS011;18973;48.580;8.912;2023-02-04T07:26:14;14.40;;;5.28;;
32533;SDS011;18973;48.580;8.912;2023-02-04T07:28:39;18.00;;;5.88;;
32533;SDS011;18973;48.580;8.912;2023-02-04T07:31:06;13.40;;;5.32;;
32533;SDS011;18973;48.580;8.912;2023-02-04T07:33:32;15.43;;;5.82;;
32533;SDS011;18973;48.580;8.912;2023-02-04T07:35:57;15.63;;;7.90;;
32533;SDS011;18973;48.580;8.912;2023-02-04T07:38:23;24.95;;;12.20;;
32533;SDS011;18973;48.580;8.912;2023-02-04T07:40:49;26.75;;;9.57;;
32533;SDS011;18973;48.580;8.912;2023-02-04T07:43:14;28.48;;;9.60;;
32533;SDS011;18973;48.580;8.912;2023-02-04T07:45:40;24.17;;;7.65;;
32533;SDS011;18973;48.580;8.912;2023-02-04T07:48:05;22.33;;;6.38;;
32533;SDS011;18973;48.580;8.912;2023-02-04T07:50:31;12.57;;;5.43;;
32533;SDS011;18973;48.580;8.912;2023-02-04T07:52:57;15.77;;;7.15;;
32533;SDS011;18973;48.580;8.912;2023-02-04T07:55:22;16.15;;;5.57;;
32533;SDS011;18973;48.580;8.912;2023-02-04T07:57:48;11.57;;;5.00;;
32533;SDS011;18973;48.580;8.912;2023-02-04T08:00:14;13.55;;;5.13;;
32533;SDS011;18973;48.580;8.912;2023-02-04T08:02:40;14.02;;;5.38;;
32533;SDS011;18973;48.580;8.912;2023-02-04T08:05:06;15.35;;;5.82;;
32533;SDS011;18973;48.580;8.912;2023-02-04T08:07:33;13.77;;;6.15;;
32533;SDS011;18973;48.580;8.912;2023-02-04T08:09:58;16.73;;;5.85;;
32533;SDS011;18973;48.580;8.912;2023-02-04T08:12:24;13.48;;;5.88;;
32533;SDS011;18973;48.580;8.912;2023-02-04T08:14:50;14.57;;;6.20;;
32533;SDS011;18973;48.580;8.912;2023-02-04T08:17:15;16.33;;;7.75;;
32533;SDS011;18973;48.580;8.912;2023-02-04T08:19:41;20.33;;;7.47;;
32533;SDS011;18973;48.580;8.912;2023-02-04T08:22:07;18.23;;;6.45;;
32533;SDS011;18973;48.580;8.912;2023-02-04T08:24:32;22.60;;;8.75;;
32533;SDS011;18973;48.580;8.912;2023-02-04T08:26:58;17.27;;;7.28;;
32533;SDS011;18973;48.580;8.912;2023-02-04T08:29:24;16.70;;;7.38;;
32533;SDS011;18973;48.580;8.912;2023-02-04T08:31:49;20.58;;;8.48;;
32533;SDS011;18973;48.580;8.912;2023-02-04T08:34:15;22.05;;;7.30;;
32533;SDS011;18973;48.580;8.912;2023-02-04T08:36:41;18.08;;;6.75;;
32533;SDS011;18973;48.580;8.912;2023-02-04T08:39:08;22.38;;;7.45;;
32533;SDS011;18973;48.580;8.912;2023-02-04T08:41:34;23.85;;;7.38;;
32533;SDS011;18973;48.580;8.912;2023-02-04T08:44:00;17.45;;;6.55;;
32533;SDS011;18973;48.580;8.912;2023-02-04T08:46:26;16.83;;;6.35;;
32533;SDS011;18973;48.580;8.912;2023-02-04T08:48:52;20.65;;;7.57;;
32533;SDS011;18973;48.580;8.912;2023-02-04T08:51:17;13.10;;;6.93;;
32533;SDS011;18973;48.580;8.912;2023-02-04T08:53:43;25.30;;;9.38;;
32533;SDS011;18973;48.580;8.912;2023-02-04T08:56:09;22.00;;;8.02;;
32533;SDS011;18973;48.580;8.912;2023-02-04T08:58:39;26.65;;;8.02;;
32533;SDS011;18973;48.580;8.912;2023-02-04T09:01:05;22.90;;;8.80;;
32533;SDS011;18973;48.580;8.912;2023-02-04T09:03:31;23.10;;;7.93;;
32533;SDS011;18973;48.580;8.912;2023-02-04T09:05:57;25.90;;;8.10;;
32533;SDS011;18973;48.580;8.912;2023-02-04T09:08:22;23.83;;;10.07;;
32533;SDS011;18973;48.580;8.912;2023-02-04T09:10:48;22.30;;;7.32;;
32533;SDS011;18973;48.580;8.912;2023-02-04T09:13:14;23.15;;;9.13;;
32533;SDS011;18973;48.580;8.912;2023-02-04T09:15:39;27.00;;;9.25;;
32533;SDS011;18973;48.580;8.912;2023-02-04T09:18:05;25.85;;;7.13;;
32533;SDS011;18973;48.580;8.912;2023-02-04T09:20:50;28.60;;;8.43;;
32533;SDS011;18973;48.580;8.912;2023-02-04T09:23:17;23.65;;;8.52;;
32533;SDS011;18973;48.580;8.912;2023-02-04T09:25:43;21.25;;;9.13;;
32533;SDS011;18973;48.580;8.912;2023-02-04T09:28:10;22.50;;;7.07;;
32533;SDS011;18973;48.580;8.912;2023-02-04T09:30:37;17.42;;;6.80;;
32533;SDS011;18973;48.580;8.912;2023-02-04T09:33:03;21.27;;;6.80;;
32533;SDS011;18973;48.580;8.912;2023-02-04T09:35:29;13.55;;;6.95;;
32533;SDS011;18973;48.580;8.912;2023-02-04T09:37:55;16.58;;;6.00;;
32533;SDS011;18973;48.580;8.912;2023-02-04T09:40:21;26.13;;;7.28;;
32533;SDS011;18973;48.580;8.912;2023-02-04T09:42:47;22.40;;;6.25;;
32533;SDS011;18973;48.580;8.912;2023-02-04T09:45:16;16.20;;;6.63;;
32533;SDS011;18973;48.580;8.912;2023-02-04T09:47:53;22.08;;;5.97;;
32533;SDS011;18973;48.580;8.912;2023-02-04T09:50:21;28.95;;;6.80;;
32533;SDS011;18973;48.580;8.912;2023-02-04T09:52:49;15.32;;;5.15;;
32533;SDS011;18973;48.580;8.912;2023-02-04T09:55:19;28.17;;;6.32;;
32533;SDS011;18973;48.580;8.912;2023-02-04T09:57:46;16.58;;;5.90;;
32533;SDS011;18973;48.580;8.912;2023-02-04T10:00:22;25.27;;;7.40;;
32533;SDS011;18973;48.580;8.912;2023-02-04T10:02:50;16.23;;;5.88;;
32533;SDS011;18973;48.580;8.912;2023-02-04T10:05:20;23.13;;;7.53;;
32533;SDS011;18973;48.580;8.912;2023-02-04T10:07:51;18.38;;;5.60;;
32533;SDS011;18973;48.580;8.912;2023-02-04T10:10:20;24.13;;;6.35;;
32533;SDS011;18973;48.580;8.912;2023-02-04T10:12:49;14.18;;;4.20;;
32533;SDS011;18973;48.580;8.912;2023-02-04T10:15:17;12.27;;;4.72;;
32533;SDS011;18973;48.580;8.912;2023-02-04T10:17:47;18.67;;;4.95;;
32533;SDS011;18973;48.580;8.912;2023-02-04T10:20:17;15.30;;;3.70;;
32533;SDS011;18973;48.580;8.912;2023-02-04T10:22:45;18.73;;;3.90;;
32533;SDS011;18973;48.580;8.912;2023-02-04T10:25:13;17.90;;;4.90;;
32533;SDS011;18973;48.580;8.912;2023-02-04T10:27:53;18.02;;;3.83;;
32533;SDS011;18973;48.580;8.912;2023-02-04T10:30:21;30.65;;;10.07;;
32533;SDS011;18973;48.580;8.912;2023-02-04T10:32:59;17.92;;;5.15;;
32533;SDS011;18973;48.580;8.912;2023-02-04T10:35:42;18.70;;;6.75;;
32533;SDS011;18973;48.580;8.912;2023-02-04T10:38:13;18.58;;;4.38;;
32533;SDS011;18973;48.580;8.912;2023-02-04T10:40:39;25.85;;;9.15;;
32533;SDS011;18973;48.580;8.912;2023-02-04T10:43:16;38.13;;;15.35;;
32533;SDS011;18973;48.580;8.912;2023-02-04T10:45:46;67.60;;;27.77;;
32533;SDS011;18973;48.580;8.912;2023-02-04T10:48:18;32.35;;;13.23;;
32533;SDS011;18973;48.580;8.912;2023-02-04T10:50:45;48.83;;;20.45;;
32533;SDS011;18973;48.580;8.912;2023-02-04T10:53:14;50.30;;;18.60;;
32533;SDS011;18973;48.580;8.912;2023-02-04T10:56:03;17.98;;;6.43;;
32533;SDS011;18973;48.580;8.912;2023-02-04T10:58:35;18.90;;;6.55;;
32533;SDS011;18973;48.580;8.912;2023-02-04T11:01:01;19.48;;;3.80;;
32533;SDS011;18973;48.580;8.912;2023-02-04T11:03:27;12.90;;;4.25;;
32533;SDS011;18973;48.580;8.912;2023-02-04T11:05:55;15.45;;;5.18;;
32533;SDS011;18973;48.580;8.912;2023-02-04T11:08:23;12.77;;;4.18;;
32533;SDS011;18973;48.580;8.912;2023-02-04T11:10:58;16.65;;;4.07;;
32533;SDS011;18973;48.580;8.912;2023-02-04T11:13:44;19.13;;;6.95;;
32533;SDS011;18973;48.580;8.912;2023-02-04T11:16:34;14.68;;;4.78;;
32533;SDS011;18973;48.580;8.912;2023-02-04T11:19:11;17.55;;;7.18;;
32533;SDS011;18973;48.580;8.912;2023-02-04T11:29:35;15.93;;;4.45;;
32533;SDS011;18973;48.580;8.912;2023-02-04T11:32:26;19.02;;;3.72;;
32533;SDS011;18973;48.580;8.912;2023-02-04T11:37:36;26.85;;;5.13;;
32533;SDS011;18973;48.580;8.912;2023-02-04T11:43:00;20.17;;;4.60;;
32533;SDS011;18973;48.580;8.912;2023-02-04T11:45:37;16.80;;;4.30;;
32533;SDS011;18973;48.580;8.912;2023-02-04T11:48:16;15.18;;;4.47;;
32533;SDS011;18973;48.580;8.912;2023-02-04T11:50:54;23.40;;;6.00;;
32533;SDS011;18973;48.580;8.912;2023-02-04T11:53:33;17.20;;;5.60;;
32533;SDS011;18973;48.580;8.912;2023-02-04T11:55:59;15.85;;;4.28;;
32533;SDS011;18973;48.580;8.912;2023-02-04T11:58:25;21.15;;;5.35;;
32533;SDS011;18973;48.580;8.912;2023-02-04T12:00:54;18.23;;;4.30;;
32533;SDS011;18973;48.580;8.912;2023-02-04T12:03:22;16.77;;;4.80;;
32533;SDS011;18973;48.580;8.912;2023-02-04T12:05:54;12.35;;;3.58;;
32533;SDS011;18973;48.580;8.912;2023-02-04T12:10:57;15.85;;;3.67;;
32533;SDS011;18973;48.580;8.912;2023-02-04T12:13:57;12.20;;;3.78;;
32533;SDS011;18973;48.580;8.912;2023-02-04T12:16:38;16.50;;;3.83;;
32533;SDS011;18973;48.580;8.912;2023-02-04T12:19:05;11.65;;;3.67;;
32533;SDS011;18973;48.580;8.912;2023-02-04T12:21:31;14.82;;;4.00;;
32533;SDS011;18973;48.580;8.912;2023-02-04T12:23:56;20.55;;;3.78;;
32533;SDS011;18973;48.580;8.912;2023-02-04T12:26:22;12.88;;;3.67;;
32533;SDS011;18973;48.580;8.912;2023-02-04T12:28:48;17.15;;;3.90;;
32533;SDS011;18973;48.580;8.912;2023-02-04T12:31:13;35.03;;;12.82;;
32533;SDS011;18973;48.580;8.912;2023-02-04T12:33:39;68.32;;;24.83;;
32533;SDS011;18973;48.580;8.912;2023-02-04T12:36:05;25.52;;;9.18;;
32533;SDS011;18973;48.580;8.912;2023-02-04T12:38:31;39.22;;;14.80;;
32533;SDS011;18973;48.580;8.912;2023-02-04T12:40:56;44.70;;;15.85;;
32533;SDS011;18973;48.580;8.912;2023-02-04T12:43:22;21.85;;;7.45;;
32533;SDS011;18973;48.580;8.912;2023-02-04T12:45:49;20.10;;;8.30;;
32533;SDS011;18973;48.580;8.912;2023-02-04T12:48:14;14.63;;;4.70;;
32533;SDS011;18973;48.580;8.912;2023-02-04T12:50:40;32.30;;;16.20;;
32533;SDS011;18973;48.580;8.912;2023-02-04T12:53:06;7.70;;;3.15;;
32533;SDS011;18973;48.580;8.912;2023-02-04T12:55:32;17.23;;;5.68;;
32533;SDS011;18973;48.580;8.912;2023-02-04T12:57:57;14.52;;;3.85;;
32533;SDS011;18973;48.580;8.912;2023-02-04T13:00:23;17.92;;;3.90;;
32533;SDS011;18973;48.580;8.912;2023-02-04T13:02:51;18.15;;;6.32;;
32533;SDS011;18973;48.580;8.912;2023-02-04T13:05:19;14.88;;;4.45;;
32533;SDS011;18973;48.580;8.912;2023-02-04T13:07:45;16.15;;;5.75;;
32533;SDS011;18973;48.580;8.912;2023-02-04T13:10:11;14.15;;;5.60;;
32533;SDS011;18973;48.580;8.912;2023-02-04T13:12:38;10.80;;;3.45;;
32533;SDS011;18973;48.580;8.912;2023-02-04T13:15:04;18.73;;;5.32;;
32533;SDS011;18973;48.580;8.912;2023-02-04T13:17:30;10.60;;;3.63;;
32533;SDS011;18973;48.580;8.912;2023-02-04T13:19:56;20.38;;;4.68;;
32533;SDS011;18973;48.580;8.912;2023-02-04T13:22:21;16.10;;;3.17;;
32533;SDS011;18973;48.580;8.912;2023-02-04T13:24:47;14.13;;;3.08;;
32533;SDS011;18973;48.580;8.912;2023-02-04T13:27:13;22.38;;;5.95;;
32533;SDS011;18973;48.580;8.912;2023-02-04T13:29:39;29.77;;;8.18;;
32533;SDS011;18973;48.580;8.912;2023-02-04T13:32:05;17.00;;;4.00;;
32533;SDS011;18973;48.580;8.912;2023-02-04T13:34:30;12.75;;;3.33;;
32533;SDS011;18973;48.580;8.912;2023-02-04T13:36:56;13.25;;;3.85;;
32533;SDS011;18973;48.580;8.912;2023-02-04T13:39:22;18.98;;;6.38;;
32533;SDS011;18973;48.580;8.912;2023-02-04T13:41:48;13.27;;;3.60;;
32533;SDS011;18973;48.580;8.912;2023-02-04T13:44:13;19.85;;;6.15;;
32533;SDS011;18973;48.580;8.912;2023-02-04T13:46:39;11.95;;;3.38;;
32533;SDS011;18973;48.580;8.912;2023-02-04T13:49:05;16.95;;;2.90;;
32533;SDS011;18973;48.580;8.912;2023-02-04T13:51:30;11.60;;;4.00;;
32533;SDS011;18973;48.580;8.912;2023-02-04T13:53:56;14.02;;;3.65;;
32533;SDS011;18973;48.580;8.912;2023-02-04T13:56:24;12.02;;;3.58;;
32533;SDS011;18973;48.580;8.912;2023-02-04T13:58:53;13.40;;;4.38;;
32533;SDS011;18973;48.580;8.912;2023-02-04T14:01:18;15.38;;;4.38;;
32533;SDS011;18973;48.580;8.912;2023-02-04T14:03:44;10.48;;;3.33;;
32533;SDS011;18973;48.580;8.912;2023-02-04T14:06:10;18.20;;;3.20;;
32533;SDS011;18973;48.580;8.912;2023-02-04T14:08:37;15.60;;;4.10;;
32533;SDS011;18973;48.580;8.912;2023-02-04T14:11:03;9.55;;;3.33;;
32533;SDS011;18973;48.580;8.912;2023-02-04T14:13:29;11.48;;;3.92;;
32533;SDS011;18973;48.580;8.912;2023-02-04T14:15:54;7.88;;;2.78;;
32533;SDS011;18973;48.580;8.912;2023-02-04T14:18:20;16.05;;;4.43;;
32533;SDS011;18973;48.580;8.912;2023-02-04T14:20:46;13.02;;;4.28;;
32533;SDS011;18973;48.580;8.912;2023-02-04T14:23:12;18.35;;;6.00;;
32533;SDS011;18973;48.580;8.912;2023-02-04T14:25:38;17.38;;;9.10;;
32533;SDS011;18973;48.580;8.912;2023-02-04T14:28:04;16.05;;;3.78;;
32533;SDS011;18973;48.580;8.912;2023-02-04T14:30:30;12.88;;;2.30;;
32533;SDS011;18973;48.580;8.912;2023-02-04T14:32:56;13.68;;;6.13;;
32533;SDS011;18973;48.580;8.912;2023-02-04T14:35:23;11.25;;;3.15;;
32533;SDS011;18973;48.580;8.912;2023-02-04T14:37:49;11.88;;;4.05;;
32533;SDS011;18973;48.580;8.912;2023-02-04T14:40:15;11.43;;;3.97;;
32533;SDS011;18973;48.580;8.912;2023-02-04T14:42:42;10.48;;;5.13;;
32533;SDS011;18973;48.580;8.912;2023-02-04T14:45:09;12.02;;;2.83;;
32533;SDS011;18973;48.580;8.912;2023-02-04T14:47:36;15.07;;;5.07;;
32533;SDS011;18973;48.580;8.912;2023-02-04T14:50:07;17.30;;;3.92;;
32533;SDS011;18973;48.580;8.912;2023-02-04T14:52:35;10.77;;;3.05;;
32533;SDS011;18973;48.580;8.912;2023-02-04T14:55:00;14.60;;;3.78;;
32533;SDS011;18973;48.580;8.912;2023-02-04T14:57:26;12.82;;;3.35;;